This is the latest recevied weather packets stored in our database for station/object W4VCO. If no packets are shown the sender has not sent any weather packets the latest 10 day(s).
| Time | Temp. | Humidity | Pressure | Rain* | Wind** | Luminosity | Snow |
|---|---|---|---|---|---|---|---|
| 1787533310 | 24.44° C | 89% | 1014.3 hPa | 0 mm | - | - | - |
| 1787533011 | 24.44° C | 88% | 1014.2 hPa | 0 mm | - | - | - |
| 1787530010 | 24.44° C | 87% | 1014.1 hPa | 0 mm | - | - | - |
| 1787526110 | 24.44° C | 88% | 1014.1 hPa | 0 mm | - | - | - |
| 1787525812 | 24.44° C | 88% | 1014.1 hPa | 0 mm | - | - | - |
| 1787525013 | 24.44° C | 88% | 1013.9 hPa | 0 mm | - | - | - |
| 1787524912 | 24.44° C | 88% | 1013.9 hPa | 0 mm | - | - | - |
| 1787521065 | 23.89° C | 91% | 1013.5 hPa | 0 mm | - | - | - |
| 1787521009 | 23.89° C | 91% | 1013.5 hPa | 0 mm | - | - | - |
| 1787517160 | 23.89° C | 93% | 1014.6 hPa | 0 mm | - | - | - |
| 1787517109 | 23.89° C | 93% | 1014.6 hPa | 0 mm | - | - | - |
| 1787515613 | 23.89° C | 93% | 1015 hPa | 0 mm | - | - | - |
| 1787515413 | 23.89° C | 93% | 1015 hPa | 0 mm | - | - | - |
| 1787515314 | 23.89° C | 93% | 1015 hPa | 0 mm | - | - | - |
| 1787514117 | 23.33° C | 93% | 1015.2 hPa | 0.76 mm | - | - | - |
| 1787482308 | 24.44° C | 87% | 1014.2 hPa | 0 mm | - | - | - |
| 1787481867 | 24.44° C | 86% | 1014.3 hPa | 0 mm | - | - | - |
| 1787481712 | 24.44° C | 86% | 1014.3 hPa | 0 mm | - | - | - |
| 1787479250 | 24.44° C | 85% | 1013.8 hPa | 0 mm | - | - | - |
| 1787474701 | 25° C | 83% | 1013.8 hPa | 0 mm | - | - | - |
| 1787474513 | 25° C | 83% | 1013.8 hPa | 0 mm | - | - | - |
| 1787468368 | 25.56° C | 84% | 1013.8 hPa | 0 mm | - | - | - |
| 1787468214 | 25.56° C | 84% | 1013.8 hPa | 0 mm | - | - | - |
| 1787398317 | 23.33° C | 91% | 1015.2 hPa | 0 mm | - | - | - |
| 1787397501 | 23.33° C | 91% | 1015.2 hPa | 0 mm | - | - | - |
* Rain latest hour (hover to see other rain measurements)
** Current wind speed in m/s (hover to see current wind gust speed)